createdAt,value
2019-05-01T00:02:15.113Z,101.05
2019-05-01T00:04:57.900Z,61.23
2019-05-01T00:07:33.987Z,76.33
2019-05-01T00:10:07.762Z,121.07
2019-05-01T00:12:39.897Z,94.28
2019-05-01T00:15:13.825Z,135.35
2019-05-01T00:17:49.801Z,130.67
2019-05-01T00:20:22.972Z,92.45
2019-05-01T00:22:55.113Z,160.43
2019-05-01T00:25:26.913Z,180.27
2019-05-01T00:27:58.668Z,172.22
2019-05-01T00:30:31.209Z,159.20
2019-05-01T00:33:03.021Z,76.17
2019-05-01T00:35:36.576Z,125.25
2019-05-01T00:38:08.417Z,144.00
2019-05-01T00:40:40.051Z,123.45
2019-05-01T00:43:11.913Z,159.45
2019-05-01T00:45:44.225Z,102.47
2019-05-01T00:48:18.001Z,155.52
2019-05-01T00:50:49.605Z,160.43
2019-05-01T00:53:21.379Z,127.17
2019-05-01T00:55:56.195Z,168.10
2019-05-01T00:58:32.432Z,131.67
2019-05-01T01:01:08.585Z,102.80
2019-05-01T01:03:41.038Z,154.20
2019-05-01T01:06:12.814Z,164.85
2019-05-01T01:08:44.710Z,166.43
2019-05-01T01:11:16.288Z,172.37
2019-05-01T01:13:48.077Z,174.65
2019-05-01T01:16:21.018Z,124.40
2019-05-01T01:18:52.636Z,134.55
2019-05-01T01:21:24.348Z,134.00
2019-05-01T01:23:57.675Z,114.62
2019-05-01T01:26:29.755Z,82.10
2019-05-01T01:29:01.486Z,122.75
2019-05-01T01:31:33.163Z,131.78
2019-05-01T01:34:04.834Z,111.83
2019-05-01T01:36:36.524Z,118.05
2019-05-01T01:39:08.185Z,118.70
2019-05-01T01:41:41.484Z,116.62
2019-05-01T01:44:14.871Z,93.58
2019-05-01T01:46:57.698Z,84.13
2019-05-01T01:49:30.167Z,99.60
2019-05-01T01:52:02.042Z,90.62
2019-05-01T01:54:35.330Z,96.28
2019-05-01T01:57:09.803Z,104.00
2019-05-01T01:59:41.810Z,103.35
2019-05-01T02:02:15.135Z,103.87
2019-05-01T02:04:49.356Z,94.47
2019-05-01T02:07:20.944Z,99.20
2019-05-01T02:09:52.747Z,112.37
2019-05-01T02:12:24.595Z,71.72
2019-05-01T02:14:56.290Z,105.92
2019-05-01T02:17:28.923Z,65.40
2019-05-01T02:20:00.605Z,97.10
2019-05-01T02:22:32.376Z,100.02
2019-05-01T02:25:05.305Z,93.27
2019-05-01T02:27:43.990Z,95.00
2019-05-01T02:30:18.371Z,98.30
2019-05-01T02:32:52.306Z,98.87
2019-05-01T02:35:25.626Z,103.72
2019-05-01T02:37:58.269Z,114.88
2019-05-01T02:40:49.843Z,104.87
2019-05-01T02:43:25.966Z,98.70
2019-05-01T02:46:00.381Z,93.05
2019-05-01T02:48:35.308Z,106.58
2019-05-01T02:51:09.020Z,79.58
2019-05-01T02:53:43.693Z,90.92
2019-05-01T02:56:18.739Z,81.00
2019-05-01T02:58:53.432Z,83.70
2019-05-01T03:01:26.009Z,77.12
2019-05-01T03:04:00.942Z,95.17
2019-05-01T03:06:34.864Z,105.92
2019-05-01T03:09:08.338Z,103.05
2019-05-01T03:11:43.103Z,91.67
2019-05-01T03:14:17.663Z,87.27
2019-05-01T03:16:52.134Z,94.25
2019-05-01T03:19:36.565Z,83.53
2019-05-01T03:24:45.957Z,93.03
2019-05-01T03:27:17.643Z,96.92
2019-05-01T03:29:52.661Z,92.60
2019-05-01T03:32:25.393Z,111.80
2019-05-01T03:34:58.086Z,110.40
2019-05-01T03:37:30.104Z,123.87
2019-05-01T03:40:01.993Z,117.33
2019-05-01T03:42:34.194Z,137.72
2019-05-01T03:45:07.383Z,132.05
2019-05-01T03:47:39.639Z,136.70
2019-05-01T03:50:11.475Z,132.85
2019-05-01T03:52:43.303Z,126.02
2019-05-01T03:55:15.213Z,101.75
2019-05-01T03:57:48.481Z,109.37
2019-05-01T04:00:23.300Z,76.67
2019-05-01T04:03:14.233Z,110.20
2019-05-01T04:05:47.083Z,122.13
2019-05-01T04:08:20.363Z,80.53
2019-05-01T04:10:54.989Z,114.32
2019-05-01T04:13:26.787Z,105.78
2019-05-01T04:15:59.142Z,120.42
2019-05-01T04:18:30.909Z,108.83
2019-05-01T04:21:03.607Z,111.85
2019-05-01T04:23:39.586Z,124.90
2019-05-01T04:26:11.839Z,109.75
2019-05-01T04:28:48.157Z,110.32
2019-05-01T04:31:30.766Z,114.12
2019-05-01T04:34:13.712Z,117.10
2019-05-01T04:36:47.131Z,119.53
2019-05-01T04:39:18.998Z,105.00
2019-05-01T04:41:51.409Z,126.42
2019-05-01T04:44:23.200Z,117.60
2019-05-01T04:46:55.004Z,84.13
2019-05-01T04:49:28.011Z,127.27
2019-05-01T04:52:01.036Z,123.72
2019-05-01T04:54:32.835Z,126.80
2019-05-01T04:57:04.995Z,118.77
2019-05-01T04:59:36.927Z,105.25
2019-05-01T05:02:15.113Z,120.17
2019-05-01T05:04:46.979Z,124.02
2019-05-01T05:07:19.126Z,98.40
2019-05-01T05:09:51.632Z,102.60
2019-05-01T05:12:28.379Z,96.02
2019-05-01T05:15:18.625Z,90.00
2019-05-01T05:17:52.302Z,91.90
2019-05-01T05:20:28.120Z,89.32
2019-05-01T05:23:00.011Z,82.22
2019-05-01T05:25:32.202Z,84.30
2019-05-01T05:28:06.895Z,79.72
2019-05-01T05:30:40.092Z,82.65
2019-05-01T05:33:18.535Z,87.85
2019-05-01T05:35:51.335Z,82.05
2019-05-01T05:38:34.212Z,81.37
2019-05-01T05:41:07.305Z,80.95
2019-05-01T05:43:39.834Z,75.22
2019-05-01T05:46:13.843Z,71.40
2019-05-01T05:48:47.939Z,77.55
2019-05-01T05:54:05.593Z,71.80
2019-05-01T05:56:55.599Z,64.82
2019-05-01T05:59:35.064Z,64.58
2019-05-01T06:02:15.863Z,60.80
2019-05-01T06:04:54.472Z,63.02
2019-05-01T06:07:29.794Z,68.07
2019-05-01T06:10:06.327Z,63.85
2019-05-01T06:12:56.635Z,66.53
2019-05-01T06:15:48.851Z,64.32
2019-05-01T06:18:27.640Z,64.40
2019-05-01T06:21:02.161Z,64.27
2019-05-01T06:23:47.715Z,67.85
2019-05-01T06:26:32.152Z,63.03
2019-05-01T06:29:04.172Z,60.60
2019-05-01T06:31:38.128Z,59.50
2019-05-01T06:34:09.966Z,59.83
2019-05-01T06:36:44.450Z,63.87
2019-05-01T06:39:18.800Z,60.98
2019-05-01T06:41:51.440Z,60.00
2019-05-01T06:44:39.123Z,57.95
2019-05-01T06:47:28.149Z,62.98
2019-05-01T06:50:07.389Z,58.42
2019-05-01T06:52:40.771Z,62.33
2019-05-01T06:55:14.735Z,62.80
2019-05-01T06:57:49.532Z,60.20
2019-05-01T07:00:22.788Z,57.60
2019-05-01T07:02:55.857Z,55.65
2019-05-01T07:05:32.353Z,55.55
2019-05-01T07:08:06.386Z,59.35
2019-05-01T07:10:43.976Z,57.43
2019-05-01T07:13:12.182Z,63.60
2019-05-01T07:15:44.558Z,56.53
2019-05-01T07:18:18.815Z,53.13
2019-05-01T07:20:53.143Z,53.52
2019-05-01T07:23:25.855Z,55.98
2019-05-01T07:25:57.535Z,54.55
2019-05-01T07:28:34.208Z,48.95
2019-05-01T07:31:05.328Z,49.73
2019-05-01T07:33:37.491Z,47.17
2019-05-01T07:36:15.150Z,50.15
2019-05-01T07:38:48.620Z,53.73
2019-05-01T07:41:23.029Z,49.80
2019-05-01T07:44:10.846Z,49.60
2019-05-01T07:46:54.310Z,50.45
2019-05-01T07:49:47.866Z,45.90
2019-05-01T07:52:18.778Z,50.58
2019-05-01T07:54:51.057Z,47.43
2019-05-01T07:57:23.719Z,51.05
2019-05-01T07:59:58.363Z,57.23
2019-05-01T08:02:31.141Z,48.98
2019-05-01T08:05:09.862Z,44.73
2019-05-01T08:07:42.571Z,46.30
2019-05-01T08:10:15.629Z,45.30
2019-05-01T08:12:48.283Z,43.50
2019-05-01T08:15:22.568Z,44.77
2019-05-01T08:17:56.997Z,51.48
2019-05-01T08:20:32.806Z,48.00
2019-05-01T08:23:07.609Z,44.03
2019-05-01T08:25:38.975Z,46.73
2019-05-01T08:28:12.237Z,48.00
2019-05-01T08:31:03.549Z,52.33
2019-05-01T08:33:49.865Z,48.33
2019-05-01T08:36:22.608Z,49.85
2019-05-01T08:38:54.367Z,49.73
2019-05-01T08:41:26.967Z,47.80
2019-05-01T08:44:07.027Z,49.80
2019-05-01T08:46:40.952Z,60.05
2019-05-01T08:49:14.214Z,47.15
2019-05-01T08:51:47.127Z,50.75
2019-05-01T08:54:19.367Z,53.87
2019-05-01T08:56:53.090Z,50.30
2019-05-01T08:59:25.812Z,48.78
2019-05-01T09:02:08.793Z,56.58
2019-05-01T09:04:33.974Z,46.63
2019-05-01T09:07:06.907Z,47.70
2019-05-01T09:09:39.699Z,46.95
2019-05-01T09:12:15.016Z,47.58
2019-05-01T09:14:47.171Z,48.15
2019-05-01T09:17:20.851Z,39.65
2019-05-01T09:19:52.909Z,41.90
2019-05-01T09:22:26.687Z,44.35
2019-05-01T09:25:00.291Z,42.03
2019-05-01T09:27:39.598Z,46.55
2019-05-01T09:30:21.784Z,38.40
2019-05-01T09:32:55.766Z,45.03
2019-05-01T09:35:28.080Z,42.45
2019-05-01T09:38:01.355Z,44.88
2019-05-01T09:40:34.485Z,42.50
2019-05-01T09:43:08.093Z,41.80
2019-05-01T09:45:39.904Z,32.25
2019-05-01T09:48:14.100Z,31.42
2019-05-01T09:50:54.586Z,28.83
2019-05-01T09:53:34.189Z,30.77
2019-05-01T09:56:13.720Z,28.77
2019-05-01T09:58:45.405Z,28.47
2019-05-01T10:01:18.644Z,24.95
2019-05-01T10:03:54.594Z,23.85
2019-05-01T10:06:26.349Z,21.00
2019-05-01T10:08:59.681Z,23.12
2019-05-01T10:11:36.011Z,20.15
2019-05-01T10:14:09.447Z,18.73
2019-05-01T10:16:43.781Z,21.07
2019-05-01T10:19:19.302Z,16.50
2019-05-01T10:21:50.858Z,24.90
2019-05-01T10:24:25.624Z,18.17
2019-05-01T10:27:02.032Z,17.95
2019-05-01T10:29:43.185Z,15.83
2019-05-01T10:32:21.670Z,19.40
2019-05-01T10:34:59.688Z,15.72
2019-05-01T10:37:35.782Z,19.90
2019-05-01T10:40:09.243Z,24.90
2019-05-01T10:42:42.464Z,19.07
2019-05-01T10:45:16.012Z,15.70
2019-05-01T10:47:52.935Z,19.23
2019-05-01T10:50:24.576Z,19.12
2019-05-01T10:52:58.715Z,26.07
2019-05-01T10:55:34.035Z,20.60
2019-05-01T10:58:07.593Z,18.87
2019-05-01T11:00:41.029Z,19.45
2019-05-01T11:03:13.996Z,15.83
2019-05-01T11:05:55.678Z,18.95
2019-05-01T11:08:23.424Z,19.00
2019-05-01T11:10:57.720Z,13.85
2019-05-01T11:13:31.346Z,10.58
2019-05-01T11:16:04.572Z,13.50
2019-05-01T11:18:36.076Z,16.67
2019-05-01T11:21:09.584Z,21.50
2019-05-01T11:23:41.129Z,15.55
2019-05-01T11:26:13.440Z,22.55
2019-05-01T11:28:50.403Z,14.87
2019-05-01T11:31:24.035Z,12.73
2019-05-01T11:33:57.371Z,11.25
2019-05-01T11:36:41.643Z,9.53
2019-05-01T11:39:35.836Z,12.85
2019-05-01T11:42:09.447Z,15.98
2019-05-01T11:44:41.508Z,11.30
2019-05-01T11:47:14.643Z,14.68
2019-05-01T11:49:47.603Z,10.58
2019-05-01T11:52:18.936Z,6.72
2019-05-01T11:54:51.535Z,10.15
2019-05-01T11:57:23.062Z,8.85
2019-05-01T11:59:57.059Z,9.15
2019-05-01T12:02:29.588Z,7.90
2019-05-01T12:05:01.105Z,10.48
2019-05-01T12:07:32.676Z,7.03
2019-05-01T12:10:08.319Z,9.38
2019-05-01T12:12:39.907Z,10.60
2019-05-01T12:15:13.284Z,8.65
2019-05-01T12:17:50.354Z,8.35
2019-05-01T12:20:23.044Z,5.42
2019-05-01T12:22:56.052Z,10.38
2019-05-01T12:25:28.940Z,11.25
2019-05-01T12:28:02.691Z,9.03
2019-05-01T12:30:35.292Z,8.20
2019-05-01T12:33:10.425Z,12.50
2019-05-01T12:35:43.512Z,7.40
2019-05-01T12:38:16.722Z,9.40
2019-05-01T12:40:50.412Z,10.28
2019-05-01T12:43:22.431Z,13.50
2019-05-01T12:45:55.973Z,11.48
2019-05-01T12:48:27.780Z,9.05
2019-05-01T12:50:59.436Z,13.25
2019-05-01T12:53:32.969Z,10.40
2019-05-01T12:56:10.243Z,7.97
2019-05-01T12:58:42.225Z,7.33
2019-05-01T13:01:14.522Z,9.10
2019-05-01T13:03:46.022Z,10.15
2019-05-01T13:06:17.650Z,9.38
2019-05-01T13:08:50.848Z,10.60
2019-05-01T13:11:22.320Z,9.00
2019-05-01T13:13:54.842Z,9.73
2019-05-01T13:16:26.327Z,10.43
2019-05-01T13:18:58.881Z,6.08
2019-05-01T13:21:30.356Z,13.50
2019-05-01T13:24:01.980Z,8.75
2019-05-01T13:26:48.448Z,10.23
2019-05-01T13:29:22.220Z,8.75
2019-05-01T13:31:56.072Z,9.83
2019-05-01T13:34:28.870Z,9.85
2019-05-01T13:37:03.190Z,7.87
2019-05-01T13:39:34.759Z,7.65
2019-05-01T13:42:09.609Z,6.85
2019-05-01T13:44:43.827Z,9.45
2019-05-01T13:47:17.149Z,7.63
2019-05-01T13:49:48.709Z,7.05
2019-05-01T13:52:20.815Z,6.50
2019-05-01T13:54:53.007Z,7.47
2019-05-01T13:57:27.035Z,6.53
2019-05-01T13:59:58.635Z,6.03
2019-05-01T14:02:33.077Z,9.10
2019-05-01T14:05:05.696Z,4.75
2019-05-01T14:07:40.292Z,4.95
2019-05-01T14:10:12.294Z,5.95
2019-05-01T14:12:45.404Z,7.42
2019-05-01T14:15:18.176Z,6.20
2019-05-01T14:17:51.022Z,5.00
2019-05-01T14:20:31.293Z,5.72
2019-05-01T14:23:19.624Z,8.20
2019-05-01T14:26:06.151Z,4.40
2019-05-01T14:28:37.769Z,5.37
2019-05-01T14:31:09.271Z,6.80
2019-05-01T14:33:41.755Z,5.65
2019-05-01T14:36:13.291Z,4.92
2019-05-01T14:38:46.066Z,6.53
2019-05-01T14:41:18.734Z,7.20
2019-05-01T14:43:52.053Z,8.50
2019-05-01T14:46:31.848Z,6.33
2019-05-01T14:49:06.051Z,7.70
2019-05-01T14:51:38.475Z,9.03
2019-05-01T14:54:12.052Z,6.17
2019-05-01T14:56:43.643Z,8.50
2019-05-01T14:59:15.297Z,6.80
2019-05-01T15:01:47.311Z,9.33
2019-05-01T15:04:20.136Z,9.65
2019-05-01T15:06:51.810Z,5.37
2019-05-01T15:09:25.413Z,11.08
2019-05-01T15:11:57.060Z,7.87
2019-05-01T15:14:33.014Z,8.08
2019-05-01T15:17:17.991Z,7.55
2019-05-01T15:19:52.024Z,11.15
2019-05-01T15:22:26.177Z,14.80
2019-05-01T15:24:57.661Z,6.50
2019-05-01T15:27:31.938Z,8.53
2019-05-01T15:30:08.459Z,30.00
2019-05-01T15:32:41.500Z,14.35
2019-05-01T15:35:15.237Z,27.93
2019-05-01T15:37:56.912Z,30.20
2019-05-01T15:40:52.571Z,11.75
2019-05-01T15:43:30.982Z,17.42
2019-05-01T15:46:02.695Z,17.00
2019-05-01T15:48:38.680Z,13.28
2019-05-01T15:53:44.517Z,10.90
2019-05-01T15:56:23.355Z,5.78
2019-05-01T15:59:01.276Z,5.10
2019-05-01T16:01:36.459Z,7.25
2019-05-01T16:04:08.393Z,6.30
2019-05-01T16:06:40.824Z,7.17
2019-05-01T16:09:13.573Z,5.28
2019-05-01T16:12:04.812Z,8.58
2019-05-01T16:14:40.476Z,5.50
2019-05-01T16:17:14.926Z,11.43
2019-05-01T16:19:46.554Z,5.85
2019-05-01T16:22:20.170Z,8.53
2019-05-01T16:24:52.889Z,7.28
2019-05-01T16:27:24.818Z,7.03
2019-05-01T16:29:56.340Z,6.92
2019-05-01T16:32:27.941Z,9.78
2019-05-01T16:35:01.845Z,14.85
2019-05-01T16:37:33.959Z,9.23
2019-05-01T16:40:08.635Z,6.00
2019-05-01T16:42:41.804Z,8.35
2019-05-01T16:45:15.133Z,9.58
2019-05-01T16:47:48.050Z,6.50
2019-05-01T16:50:21.888Z,7.90
2019-05-01T16:52:53.764Z,5.15
2019-05-01T16:55:29.217Z,10.23
2019-05-01T16:58:01.692Z,4.42
2019-05-01T17:00:42.968Z,7.30
2019-05-01T17:03:20.207Z,6.10
2019-05-01T17:06:11.790Z,8.28
2019-05-01T17:08:59.576Z,5.05
2019-05-01T17:11:35.652Z,7.00
2019-05-01T17:14:09.309Z,6.57
2019-05-01T17:16:42.026Z,5.97
2019-05-01T17:19:13.487Z,5.40
2019-05-01T17:21:46.460Z,6.40
2019-05-01T17:24:18.177Z,3.83
2019-05-01T17:26:51.531Z,5.67
2019-05-01T17:29:28.425Z,6.55
2019-05-01T17:32:00.101Z,7.22
2019-05-01T17:34:32.422Z,4.28
2019-05-01T17:37:11.736Z,5.25
2019-05-01T17:39:43.966Z,8.08
2019-05-01T17:42:17.118Z,3.77
2019-05-01T17:44:51.107Z,5.28
2019-05-01T17:47:26.992Z,3.75
2019-05-01T17:49:59.943Z,5.17
2019-05-01T17:52:31.532Z,5.75
2019-05-01T17:55:03.816Z,7.15
2019-05-01T17:57:35.811Z,3.40
2019-05-01T18:00:24.657Z,3.45
2019-05-01T18:03:14.130Z,4.58
2019-05-01T18:06:11.034Z,4.70
2019-05-01T18:08:43.770Z,4.58
2019-05-01T18:11:15.823Z,5.70
2019-05-01T18:13:49.321Z,4.10
2019-05-01T18:16:21.017Z,5.10
2019-05-01T18:18:52.620Z,3.62
2019-05-01T18:21:27.457Z,5.35
2019-05-01T18:24:00.666Z,5.72
2019-05-01T18:26:51.435Z,3.77
2019-05-01T18:29:26.538Z,4.33
2019-05-01T18:32:08.305Z,5.53
2019-05-01T18:34:38.251Z,4.87
2019-05-01T18:37:14.934Z,5.53
2019-05-01T18:39:48.536Z,5.53
2019-05-01T18:42:23.126Z,6.45
2019-05-01T18:44:58.081Z,3.33
2019-05-01T18:47:30.732Z,4.78
2019-05-01T18:50:03.986Z,7.35
2019-05-01T18:52:36.397Z,4.85
2019-05-01T18:55:15.111Z,5.00
2019-05-01T18:57:50.709Z,3.67
2019-05-01T19:00:24.685Z,4.60
2019-05-01T19:02:59.674Z,4.28
2019-05-01T19:05:34.750Z,3.70
2019-05-01T19:08:09.957Z,6.78
2019-05-01T19:10:44.621Z,7.55
2019-05-01T19:13:25.889Z,5.33
2019-05-01T19:15:58.328Z,4.92
2019-05-01T19:18:30.027Z,4.37
2019-05-01T19:21:06.099Z,5.65
2019-05-01T19:23:38.624Z,3.45
2019-05-01T19:26:16.530Z,6.90
2019-05-01T19:28:51.734Z,5.12
2019-05-01T19:31:23.771Z,3.95
2019-05-01T19:33:56.906Z,4.40
2019-05-01T19:36:32.622Z,6.42
2019-05-01T19:39:11.048Z,3.75
2019-05-01T19:41:43.581Z,7.08
2019-05-01T19:44:18.794Z,9.18
2019-05-01T19:46:55.454Z,7.80
2019-05-01T19:49:29.760Z,10.60
2019-05-01T19:52:04.279Z,13.45
2019-05-01T19:54:35.872Z,9.00
2019-05-01T19:57:07.428Z,9.03
2019-05-01T19:59:41.667Z,10.60
2019-05-01T20:02:17.326Z,6.50
2019-05-01T20:04:52.078Z,5.65
2019-05-01T20:07:25.242Z,5.87
2019-05-01T20:09:58.334Z,4.83
2019-05-01T20:12:31.360Z,4.80
2019-05-01T20:15:05.142Z,6.65
2019-05-01T20:17:37.232Z,7.83
2019-05-01T20:20:13.033Z,4.90
2019-05-01T20:22:48.248Z,6.53
2019-05-01T20:25:19.366Z,7.70
2019-05-01T20:27:53.338Z,7.05
2019-05-01T20:30:27.576Z,5.37
2019-05-01T20:33:11.008Z,6.78
2019-05-01T20:35:42.487Z,5.80
2019-05-01T20:38:16.414Z,5.37
2019-05-01T20:40:49.508Z,7.28
2019-05-01T20:43:20.966Z,7.83
2019-05-01T20:45:53.234Z,8.05
2019-05-01T20:48:25.247Z,5.47
2019-05-01T20:50:57.078Z,6.40
2019-05-01T20:53:29.128Z,5.72
2019-05-01T20:56:02.274Z,7.92
2019-05-01T20:58:33.831Z,6.03
2019-05-01T21:01:06.914Z,5.78
2019-05-01T21:03:40.149Z,5.92
2019-05-01T21:06:14.756Z,4.90
2019-05-01T21:08:47.891Z,5.15
2019-05-01T21:11:24.049Z,4.65
2019-05-01T21:14:15.216Z,5.40
2019-05-01T21:16:32.982Z,5.47
2019-05-01T21:19:06.511Z,4.47
2019-05-01T21:21:38.084Z,3.98
2019-05-01T21:24:09.677Z,8.28
2019-05-01T21:26:43.372Z,4.92
2019-05-01T21:29:15.148Z,7.03
2019-05-01T21:31:46.847Z,4.97
2019-05-01T21:34:18.394Z,4.22
2019-05-01T21:36:52.726Z,3.42
2019-05-01T21:39:26.333Z,5.92
2019-05-01T21:41:56.615Z,5.95
2019-05-01T21:44:30.626Z,5.12
2019-05-01T21:47:03.929Z,3.98
2019-05-01T21:49:35.405Z,5.12
2019-05-01T21:52:07.474Z,4.42
2019-05-01T21:54:39.407Z,5.47
2019-05-01T21:57:12.055Z,5.80
2019-05-01T21:59:47.973Z,4.08
2019-05-01T22:02:18.437Z,4.15
2019-05-01T22:04:50.008Z,4.67
2019-05-01T22:07:23.773Z,4.85
2019-05-01T22:09:57.167Z,4.80
2019-05-01T22:12:29.421Z,4.85
2019-05-01T22:15:06.101Z,4.05
2019-05-01T22:17:39.458Z,4.42
2019-05-01T22:20:13.831Z,4.15
2019-05-01T22:22:52.955Z,4.53
2019-05-01T22:25:27.597Z,6.05
2019-05-01T22:28:13.935Z,7.70
2019-05-01T22:30:46.200Z,4.55
2019-05-01T22:33:18.485Z,5.10
2019-05-01T22:35:52.544Z,4.47
2019-05-01T22:38:24.716Z,6.12
2019-05-01T22:41:06.181Z,6.50
2019-05-01T22:43:31.727Z,4.78
2019-05-01T22:46:04.551Z,4.60
2019-05-01T22:48:36.145Z,5.10
2019-05-01T22:51:09.292Z,5.28
2019-05-01T22:53:41.029Z,6.25
2019-05-01T22:56:12.570Z,5.55
2019-05-01T22:58:44.582Z,5.40
2019-05-01T23:01:18.198Z,6.95
2019-05-01T23:03:51.871Z,5.00
2019-05-01T23:06:24.821Z,7.37
2019-05-01T23:08:56.371Z,6.70
2019-05-01T23:11:31.137Z,8.13
2019-05-01T23:14:02.662Z,4.90
2019-05-01T23:16:35.925Z,7.42
2019-05-01T23:19:07.413Z,8.65
2019-05-01T23:21:41.025Z,8.75
2019-05-01T23:24:12.692Z,7.97
2019-05-01T23:26:48.046Z,6.95
2019-05-01T23:29:17.519Z,6.00
2019-05-01T23:31:49.094Z,6.47
2019-05-01T23:34:21.086Z,6.62
2019-05-01T23:36:54.063Z,9.30
2019-05-01T23:39:25.679Z,6.92
2019-05-01T23:41:57.311Z,8.90
2019-05-01T23:44:28.849Z,6.80
2019-05-01T23:47:00.442Z,8.13
2019-05-01T23:49:32.044Z,7.20
2019-05-01T23:52:05.126Z,6.37
2019-05-01T23:54:36.806Z,8.33
2019-05-01T23:57:08.407Z,7.25
2019-05-01T23:59:39.996Z,7.75
